createdAt,value
2018-01-10T00:01:35.822Z,97.38
2018-01-10T00:04:03.519Z,97.23
2018-01-10T00:06:31.297Z,97.15
2018-01-10T00:08:59.216Z,97.31
2018-01-10T00:11:26.950Z,97.16
2018-01-10T00:13:54.632Z,97.23
2018-01-10T00:16:22.359Z,97.27
2018-01-10T00:18:50.089Z,97.19
2018-01-10T00:21:18.849Z,97.22
2018-01-10T00:23:46.548Z,97.22
2018-01-10T00:26:14.537Z,97.08
2018-01-10T00:28:42.201Z,97.24
2018-01-10T00:31:09.863Z,97.11
2018-01-10T00:33:37.612Z,96.77
2018-01-10T00:36:05.298Z,95.93
2018-01-10T00:38:33.034Z,96.60
2018-01-10T00:41:00.769Z,97.25
2018-01-10T00:43:28.492Z,97.33
2018-01-10T00:45:56.225Z,97.24
2018-01-10T00:48:23.901Z,97.08
2018-01-10T00:50:51.624Z,97.22
2018-01-10T00:53:19.390Z,97.48
2018-01-10T00:55:47.067Z,97.60
2018-01-10T00:58:14.826Z,97.64
2018-01-10T01:00:42.503Z,97.43
2018-01-10T01:03:10.187Z,97.22
2018-01-10T01:05:37.954Z,96.99
2018-01-10T01:08:05.633Z,96.89
2018-01-10T01:10:33.352Z,97.04
2018-01-10T01:13:01.198Z,97.34
2018-01-10T01:15:28.939Z,97.33
2018-01-10T01:17:56.666Z,97.46
2018-01-10T01:20:24.365Z,97.11
2018-01-10T01:22:52.107Z,96.71
2018-01-10T01:25:19.818Z,96.20
2018-01-10T01:27:47.525Z,95.78
2018-01-10T01:30:15.228Z,95.74
2018-01-10T01:32:42.967Z,96.75
2018-01-10T01:35:10.677Z,97.12
2018-01-10T01:37:38.453Z,97.48
2018-01-10T01:40:06.153Z,97.33
2018-01-10T01:42:34.489Z,96.64
2018-01-10T01:45:02.163Z,96.57
2018-01-10T01:47:30.832Z,96.60
2018-01-10T01:49:58.544Z,96.53
2018-01-10T01:52:26.246Z,96.53
2018-01-10T01:54:53.963Z,96.40
2018-01-10T01:57:21.649Z,96.57
2018-01-10T01:59:49.401Z,97.65
2018-01-10T02:02:17.078Z,97.64
2018-01-10T02:04:44.810Z,97.35
2018-01-10T02:07:12.562Z,97.22
2018-01-10T02:09:40.241Z,97.08
2018-01-10T02:12:08.115Z,97.07
2018-01-10T02:14:35.966Z,97.46
2018-01-10T02:17:03.649Z,97.48
2018-01-10T02:19:31.432Z,97.25
2018-01-10T02:21:59.127Z,97.20
2018-01-10T02:24:26.903Z,97.00
2018-01-10T02:26:54.601Z,97.23
2018-01-10T02:29:23.249Z,97.71
2018-01-10T02:31:50.994Z,97.79
2018-01-10T02:34:18.690Z,97.85
2018-01-10T02:36:46.498Z,98.23
2018-01-10T02:39:14.203Z,98.00
2018-01-10T02:41:41.898Z,97.77
2018-01-10T02:44:09.636Z,97.69
2018-01-10T02:46:37.355Z,97.61
2018-01-10T02:49:05.022Z,97.74
2018-01-10T02:51:32.748Z,97.51
2018-01-10T02:54:00.436Z,96.91
2018-01-10T02:56:28.198Z,96.48
2018-01-10T02:58:55.909Z,96.40
2018-01-10T03:01:23.972Z,96.56
2018-01-10T03:03:51.672Z,97.34
2018-01-10T03:06:19.426Z,97.60
2018-01-10T03:08:47.145Z,97.40
2018-01-10T03:11:14.910Z,97.15
2018-01-10T03:13:42.608Z,96.91
2018-01-10T03:16:10.317Z,96.69
2018-01-10T03:18:38.038Z,96.69
2018-01-10T03:21:05.724Z,96.95
2018-01-10T03:23:33.436Z,97.27
2018-01-10T03:26:01.111Z,96.83
2018-01-10T03:28:28.911Z,96.55
2018-01-10T03:30:56.655Z,96.68
2018-01-10T03:33:24.450Z,96.83
2018-01-10T03:35:52.111Z,96.81
2018-01-10T03:38:19.828Z,96.89
2018-01-10T03:40:47.575Z,96.78
2018-01-10T03:43:15.296Z,96.82
2018-01-10T03:45:42.986Z,96.88
2018-01-10T03:48:10.699Z,96.80
2018-01-10T03:50:38.456Z,96.82
2018-01-10T03:53:06.144Z,96.94
2018-01-10T03:55:33.894Z,96.88
2018-01-10T03:58:01.570Z,97.24
2018-01-10T04:00:30.206Z,97.40
2018-01-10T04:02:57.924Z,97.33
2018-01-10T04:05:25.608Z,97.51
2018-01-10T04:07:53.374Z,97.54
2018-01-10T04:10:21.120Z,97.52
2018-01-10T04:12:48.855Z,97.52
2018-01-10T04:15:16.598Z,97.49
2018-01-10T04:17:44.342Z,97.56
2018-01-10T04:20:12.024Z,97.58
2018-01-10T04:22:39.758Z,97.50
2018-01-10T04:25:07.447Z,97.42
2018-01-10T04:27:35.162Z,97.41
2018-01-10T04:30:03.025Z,96.94
2018-01-10T04:32:30.720Z,96.65
2018-01-10T04:34:58.409Z,96.40
2018-01-10T04:37:26.135Z,96.45
2018-01-10T04:39:54.265Z,96.94
2018-01-10T04:42:22.056Z,96.83
2018-01-10T04:44:49.735Z,96.46
2018-01-10T04:47:17.465Z,96.21
2018-01-10T04:49:45.196Z,95.99
2018-01-10T04:52:12.939Z,95.67
2018-01-10T04:54:40.731Z,96.16
2018-01-10T04:57:08.453Z,96.76
2018-01-10T04:59:36.179Z,96.79
2018-01-10T05:02:03.912Z,97.39
2018-01-10T05:04:31.619Z,97.62
2018-01-10T05:06:59.409Z,97.53
2018-01-10T05:09:27.149Z,97.28
2018-01-10T05:11:54.870Z,97.34
2018-01-10T05:14:23.039Z,97.19
2018-01-10T05:16:50.769Z,97.04
2018-01-10T05:19:18.498Z,97.05
2018-01-10T05:21:46.266Z,97.02
2018-01-10T05:24:13.976Z,97.21
2018-01-10T05:26:41.801Z,96.89
2018-01-10T05:29:09.824Z,96.91
2018-01-10T05:31:37.638Z,96.87
2018-01-10T05:34:05.367Z,97.06
2018-01-10T05:36:33.305Z,97.49
2018-01-10T05:39:01.080Z,97.80
2018-01-10T05:41:29.067Z,97.71
2018-01-10T05:43:56.863Z,97.38
2018-01-10T05:46:24.556Z,97.26
2018-01-10T05:48:52.304Z,97.18
2018-01-10T05:51:20.039Z,96.98
2018-01-10T05:53:47.788Z,97.12
2018-01-10T05:56:15.519Z,97.28
2018-01-10T05:58:43.220Z,97.12
2018-01-10T06:01:10.976Z,96.72
2018-01-10T06:03:38.753Z,96.38
2018-01-10T06:06:06.548Z,96.39
2018-01-10T06:08:34.267Z,96.29
2018-01-10T06:11:03.215Z,96.46
2018-01-10T06:13:30.990Z,96.56
2018-01-10T06:15:59.224Z,96.65
2018-01-10T06:18:26.911Z,96.77
2018-01-10T06:20:54.678Z,96.95
2018-01-10T06:23:22.381Z,97.04
2018-01-10T06:25:50.112Z,96.92
2018-01-10T06:28:17.801Z,96.79
2018-01-10T06:30:45.520Z,96.70
2018-01-10T06:33:13.264Z,96.80
2018-01-10T06:35:40.998Z,96.84
2018-01-10T06:38:08.763Z,96.99
2018-01-10T06:40:36.427Z,97.14
2018-01-10T06:43:04.190Z,97.50
2018-01-10T06:45:31.892Z,97.66
2018-01-10T06:47:59.584Z,97.68
2018-01-10T06:50:27.379Z,97.67
2018-01-10T06:52:55.200Z,97.56
2018-01-10T06:55:22.868Z,97.39
2018-01-10T06:57:51.688Z,97.16
2018-01-10T07:00:19.596Z,96.90
2018-01-10T07:02:47.340Z,96.60
2018-01-10T07:05:15.186Z,96.49
2018-01-10T07:07:42.887Z,96.54
2018-01-10T07:10:10.655Z,97.15
2018-01-10T07:12:38.429Z,97.64
2018-01-10T07:15:06.108Z,97.71
2018-01-10T07:17:34.078Z,97.87
2018-01-10T07:20:01.833Z,97.93
2018-01-10T07:22:29.622Z,97.87
2018-01-10T07:24:57.345Z,97.66
2018-01-10T07:27:25.049Z,97.48
2018-01-10T07:29:52.785Z,97.28
2018-01-10T07:32:20.570Z,97.09
2018-01-10T07:34:48.367Z,97.06
2018-01-10T07:37:16.174Z,96.93
2018-01-10T07:39:44.062Z,96.87
2018-01-10T07:42:11.791Z,97.28
2018-01-10T07:44:39.503Z,97.43
2018-01-10T07:47:07.264Z,97.60
2018-01-10T07:49:34.981Z,97.64
2018-01-10T07:52:02.698Z,97.45
2018-01-10T07:54:30.465Z,97.21
2018-01-10T07:56:58.209Z,97.01
2018-01-10T07:59:25.883Z,97.01
2018-01-10T08:01:53.612Z,96.92
2018-01-10T08:04:21.289Z,97.10
2018-01-10T08:06:49.166Z,97.91
2018-01-10T08:09:16.909Z,97.51
2018-01-10T08:11:44.603Z,96.61
2018-01-10T08:14:12.349Z,96.33
2018-01-10T08:16:40.141Z,96.62
2018-01-10T08:19:08.046Z,96.59
2018-01-10T08:21:35.828Z,96.27
2018-01-10T08:24:03.520Z,95.66
2018-01-10T08:26:31.286Z,96.06
2018-01-10T08:28:59.004Z,96.32
2018-01-10T08:31:26.814Z,96.71
2018-01-10T08:33:54.577Z,97.15
2018-01-10T08:36:22.261Z,97.50
2018-01-10T08:38:49.949Z,97.49
2018-01-10T08:41:17.705Z,97.34
2018-01-10T08:43:45.388Z,97.15
2018-01-10T08:46:13.119Z,97.01
2018-01-10T08:48:40.942Z,96.88
2018-01-10T08:51:09.241Z,96.42
2018-01-10T08:53:37.260Z,96.28
2018-01-10T08:56:05.059Z,96.24
2018-01-10T08:58:32.819Z,96.46
2018-01-10T09:01:00.648Z,97.07
2018-01-10T09:03:28.795Z,97.25
2018-01-10T09:05:56.696Z,97.23
2018-01-10T09:08:24.499Z,97.46
2018-01-10T09:10:52.358Z,97.49
2018-01-10T09:13:20.113Z,97.14
2018-01-10T09:15:47.826Z,96.62
2018-01-10T09:18:15.590Z,96.41
2018-01-10T09:20:43.275Z,96.63
2018-01-10T09:23:11.105Z,96.95
2018-01-10T09:25:38.886Z,96.69
2018-01-10T09:28:06.607Z,96.25
2018-01-10T09:30:34.505Z,95.84
2018-01-10T09:33:02.267Z,95.46
2018-01-10T09:35:30.055Z,95.27
2018-01-10T09:37:57.798Z,95.20
2018-01-10T09:40:25.612Z,95.27
2018-01-10T09:42:54.568Z,95.03
2018-01-10T09:45:22.274Z,94.51
2018-01-10T09:47:50.081Z,93.98
2018-01-10T09:50:17.858Z,94.25
2018-01-10T09:52:45.578Z,95.24
2018-01-10T09:55:13.367Z,95.08
2018-01-10T09:57:41.108Z,94.16
2018-01-10T10:00:08.896Z,94.40
2018-01-10T10:02:36.635Z,94.65
2018-01-10T10:05:04.399Z,94.49
2018-01-10T10:07:32.156Z,94.35
2018-01-10T10:09:59.936Z,94.09
2018-01-10T10:12:27.774Z,94.20
2018-01-10T10:14:55.525Z,94.26
2018-01-10T10:17:23.365Z,94.70
2018-01-10T10:19:51.102Z,94.56
2018-01-10T10:22:18.913Z,94.74
2018-01-10T10:24:46.692Z,95.31
2018-01-10T10:27:14.420Z,95.12
2018-01-10T10:29:42.216Z,95.02
2018-01-10T10:32:09.949Z,95.21
2018-01-10T10:34:37.731Z,95.40
2018-01-10T10:37:05.502Z,95.61
2018-01-10T10:39:33.198Z,96.02
2018-01-10T10:42:01.649Z,96.05
2018-01-10T10:44:29.475Z,95.85
2018-01-10T10:46:57.251Z,95.60
2018-01-10T10:49:25.058Z,95.77
2018-01-10T10:51:52.806Z,95.88
2018-01-10T10:54:20.534Z,95.56
2018-01-10T10:56:48.244Z,95.65
2018-01-10T10:59:16.012Z,95.82
2018-01-10T11:01:43.910Z,96.24
2018-01-10T11:04:11.622Z,96.56
2018-01-10T11:06:39.308Z,96.10
2018-01-10T11:09:07.093Z,95.06
2018-01-10T11:11:34.837Z,94.49
2018-01-10T11:14:02.649Z,94.27
2018-01-10T11:16:31.309Z,93.55
2018-01-10T11:18:59.086Z,92.98
2018-01-10T11:21:26.838Z,92.19
2018-01-10T11:23:54.654Z,91.80
2018-01-10T11:26:22.401Z,92.17
2018-01-10T11:28:50.179Z,91.93
2018-01-10T11:31:17.951Z,92.07
2018-01-10T11:33:45.640Z,92.31
2018-01-10T11:36:13.366Z,91.76
2018-01-10T11:38:41.224Z,90.67
2018-01-10T11:41:08.932Z,90.64
2018-01-10T11:43:36.757Z,91.08
2018-01-10T11:46:04.628Z,92.04
2018-01-10T11:48:32.376Z,92.44
2018-01-10T11:51:00.285Z,91.24
2018-01-10T11:55:55.698Z,89.28
2018-01-10T11:58:23.400Z,88.76
2018-01-10T12:00:51.174Z,88.70
2018-01-10T12:03:18.851Z,89.43
2018-01-10T12:05:46.661Z,90.07
2018-01-10T12:08:14.417Z,90.33
2018-01-10T12:10:42.198Z,90.46
2018-01-10T12:13:10.136Z,89.77
2018-01-10T12:15:37.911Z,88.80
2018-01-10T12:18:06.107Z,88.19
2018-01-10T12:20:33.959Z,88.04
2018-01-10T12:23:01.738Z,87.72
2018-01-10T12:25:29.454Z,87.39
2018-01-10T12:27:57.246Z,82.88
2018-01-10T12:30:25.083Z,80.81
2018-01-10T12:32:52.809Z,81.78
2018-01-10T12:35:20.563Z,84.29
2018-01-10T12:37:48.289Z,84.67
2018-01-10T12:40:15.988Z,84.06
2018-01-10T12:42:43.693Z,83.98
2018-01-10T12:45:11.499Z,83.30
2018-01-10T12:47:39.291Z,82.90
2018-01-10T12:50:07.232Z,82.99
2018-01-10T12:52:35.736Z,82.93
2018-01-10T12:55:03.463Z,82.11
2018-01-10T12:57:31.248Z,81.21
2018-01-10T12:59:59.031Z,81.67
2018-01-10T13:02:26.748Z,80.84
2018-01-10T13:04:54.556Z,81.57
2018-01-10T13:07:22.286Z,81.28
2018-01-10T13:09:50.096Z,79.46
2018-01-10T13:12:17.868Z,79.33
2018-01-10T13:14:45.606Z,80.02
2018-01-10T13:17:13.604Z,80.67
2018-01-10T13:19:42.603Z,81.03
2018-01-10T13:22:11.276Z,81.36
2018-01-10T13:24:40.115Z,81.20
2018-01-10T13:27:07.926Z,80.50
2018-01-10T13:29:35.615Z,80.93
2018-01-10T13:32:03.381Z,81.11
2018-01-10T13:34:31.093Z,80.69
2018-01-10T13:37:00.615Z,80.97
2018-01-10T13:39:28.401Z,82.23
2018-01-10T13:41:56.579Z,81.51
2018-01-10T13:44:24.425Z,81.18
2018-01-10T13:46:52.461Z,81.27
2018-01-10T13:49:21.019Z,80.43
2018-01-10T13:51:48.817Z,80.95
2018-01-10T13:54:16.933Z,81.62
2018-01-10T13:56:44.697Z,81.18
2018-01-10T13:59:12.414Z,81.66
2018-01-10T14:01:40.181Z,80.59
2018-01-10T14:04:07.959Z,80.89
2018-01-10T14:06:35.734Z,80.23
2018-01-10T14:09:04.516Z,80.55
2018-01-10T14:11:33.276Z,80.96
2018-01-10T14:14:01.070Z,80.94
2018-01-10T14:16:30.786Z,81.35
2018-01-10T14:18:58.557Z,81.39
2018-01-10T14:21:26.419Z,83.83
2018-01-10T14:23:54.131Z,84.08
2018-01-10T14:26:22.394Z,84.01
2018-01-10T14:28:50.176Z,84.14
2018-01-10T14:31:17.899Z,84.31
2018-01-10T14:33:45.844Z,84.30
2018-01-10T14:36:13.636Z,84.75
2018-01-10T14:38:42.722Z,85.67
2018-01-10T14:41:10.522Z,86.12
2018-01-10T14:43:38.398Z,86.24
2018-01-10T14:46:06.154Z,85.75
2018-01-10T14:48:34.022Z,86.30
2018-01-10T14:51:01.943Z,87.39
2018-01-10T14:53:31.307Z,87.26
2018-01-10T14:55:59.208Z,87.09
2018-01-10T14:58:26.904Z,87.26
2018-01-10T15:00:54.628Z,86.86
2018-01-10T15:03:22.387Z,87.05
2018-01-10T15:05:50.188Z,87.33
2018-01-10T15:08:17.953Z,87.57
2018-01-10T15:10:45.810Z,87.67
2018-01-10T15:13:13.668Z,87.54
2018-01-10T15:15:41.418Z,87.96
2018-01-10T15:18:09.924Z,88.71
2018-01-10T15:20:37.695Z,89.06
2018-01-10T15:23:05.724Z,88.87
2018-01-10T15:25:33.416Z,88.77
2018-01-10T15:28:02.554Z,90.06
2018-01-10T15:30:30.332Z,89.77
2018-01-10T15:32:59.996Z,88.73
2018-01-10T15:35:27.980Z,88.36
2018-01-10T15:37:55.672Z,88.81
2018-01-10T15:40:23.418Z,88.93
2018-01-10T15:42:51.181Z,88.83
2018-01-10T15:45:19.608Z,89.00
2018-01-10T15:47:47.407Z,89.12
2018-01-10T15:50:15.095Z,88.76
2018-01-10T15:52:42.887Z,89.12
2018-01-10T15:55:10.728Z,90.10
2018-01-10T15:57:38.560Z,89.96
2018-01-10T16:00:07.284Z,89.79
2018-01-10T16:02:35.001Z,89.52
2018-01-10T16:05:02.778Z,89.60
2018-01-10T16:07:31.753Z,89.81
2018-01-10T16:09:59.728Z,89.84
2018-01-10T16:12:27.472Z,89.17
2018-01-10T16:14:55.192Z,89.70
2018-01-10T16:17:22.982Z,89.55
2018-01-10T16:19:51.222Z,89.82
2018-01-10T16:22:18.999Z,90.13
2018-01-10T16:24:46.822Z,90.84
2018-01-10T16:27:14.536Z,91.03
2018-01-10T16:29:42.362Z,90.43
2018-01-10T16:32:11.054Z,90.81
2018-01-10T16:34:38.844Z,90.82
2018-01-10T16:37:06.545Z,91.03
2018-01-10T16:39:34.746Z,90.30
2018-01-10T16:42:02.456Z,89.79
2018-01-10T16:44:30.197Z,89.95
2018-01-10T16:46:58.771Z,89.91
2018-01-10T16:49:26.526Z,90.09
2018-01-10T16:51:54.246Z,90.98
2018-01-10T16:54:22.107Z,91.12
2018-01-10T16:56:49.843Z,91.38
2018-01-10T16:59:17.586Z,91.30
2018-01-10T17:01:45.405Z,91.27
2018-01-10T17:04:13.627Z,90.60
2018-01-10T17:06:41.408Z,90.49
2018-01-10T17:09:09.359Z,90.83
2018-01-10T17:11:37.055Z,90.75
2018-01-10T17:14:04.809Z,90.74
2018-01-10T17:16:33.462Z,91.03
2018-01-10T17:19:01.318Z,90.02
2018-01-10T17:21:29.074Z,90.39
2018-01-10T17:23:56.812Z,91.19
2018-01-10T17:26:24.641Z,91.24
2018-01-10T17:28:52.542Z,90.91
2018-01-10T17:31:20.377Z,90.82
2018-01-10T17:33:48.376Z,90.51
2018-01-10T17:36:16.208Z,90.85
2018-01-10T17:38:43.994Z,91.12
2018-01-10T17:41:11.780Z,92.07
2018-01-10T17:43:39.535Z,91.66
2018-01-10T17:46:07.320Z,91.44
2018-01-10T17:48:35.040Z,91.46
2018-01-10T17:51:03.961Z,91.53
2018-01-10T17:53:31.814Z,90.88
2018-01-10T17:55:59.557Z,91.88
2018-01-10T17:58:27.450Z,93.05
2018-01-10T18:00:55.620Z,93.42
2018-01-10T18:03:23.442Z,92.47
2018-01-10T18:05:51.294Z,92.10
2018-01-10T18:08:19.069Z,92.22
2018-01-10T18:10:46.803Z,92.45
2018-01-10T18:13:14.584Z,92.68
2018-01-10T18:15:42.778Z,93.11
2018-01-10T18:18:10.555Z,93.30
2018-01-10T18:20:38.392Z,93.06
2018-01-10T18:23:06.120Z,92.84
2018-01-10T18:25:33.881Z,92.74
2018-01-10T18:28:01.679Z,93.16
2018-01-10T18:30:29.487Z,93.72
2018-01-10T18:32:57.444Z,94.27
2018-01-10T18:35:25.218Z,94.94
2018-01-10T18:37:54.319Z,95.00
2018-01-10T18:40:22.066Z,95.49
2018-01-10T18:42:49.870Z,95.27
2018-01-10T18:45:17.664Z,94.59
2018-01-10T18:47:46.359Z,93.79
2018-01-10T18:50:14.084Z,93.39
2018-01-10T18:52:43.972Z,94.04
2018-01-10T18:55:11.960Z,93.99
2018-01-10T18:57:39.908Z,94.29
2018-01-10T19:00:08.099Z,93.87
2018-01-10T19:02:36.046Z,94.05
2018-01-10T19:05:04.360Z,94.35
2018-01-10T19:07:32.609Z,94.41
2018-01-10T19:10:00.792Z,94.66
2018-01-10T19:12:28.716Z,95.15
2018-01-10T19:14:56.570Z,95.40
2018-01-10T19:17:24.346Z,95.54
2018-01-10T19:19:52.138Z,95.62
2018-01-10T19:22:20.906Z,95.56
2018-01-10T19:24:48.884Z,95.24
2018-01-10T19:27:16.690Z,94.54
2018-01-10T19:29:44.649Z,94.29
2018-01-10T19:32:12.486Z,94.29
2018-01-10T19:34:40.479Z,94.43
2018-01-10T19:37:09.530Z,94.79
2018-01-10T19:39:37.466Z,94.90
2018-01-10T19:42:06.235Z,94.83
2018-01-10T19:44:34.696Z,95.31
2018-01-10T19:47:02.538Z,96.12
2018-01-10T19:49:31.447Z,96.44
2018-01-10T19:51:59.313Z,96.36
2018-01-10T19:54:27.116Z,96.02
2018-01-10T19:56:54.923Z,95.68
2018-01-10T19:59:23.150Z,95.37
2018-01-10T20:01:51.058Z,94.85
2018-01-10T20:04:18.895Z,94.36
2018-01-10T20:06:46.831Z,94.58
2018-01-10T20:09:14.754Z,94.37
2018-01-10T20:11:42.513Z,94.50
2018-01-10T20:14:10.406Z,94.53
2018-01-10T20:16:38.215Z,94.56
2018-01-10T20:19:05.971Z,94.45
2018-01-10T20:21:33.852Z,94.86
2018-01-10T20:24:01.638Z,95.72
2018-01-10T20:26:29.492Z,95.90
2018-01-10T20:28:57.383Z,95.93
2018-01-10T20:31:26.352Z,95.94
2018-01-10T20:33:54.191Z,96.27
2018-01-10T20:36:21.918Z,95.93
2018-01-10T20:38:50.926Z,95.77
2018-01-10T20:41:18.675Z,95.52
2018-01-10T20:43:46.624Z,95.12
2018-01-10T20:46:14.487Z,94.87
2018-01-10T20:48:42.336Z,94.39
2018-01-10T20:51:10.109Z,94.11
2018-01-10T20:53:37.839Z,94.01
2018-01-10T20:56:05.645Z,93.95
2018-01-10T20:58:34.015Z,94.08
2018-01-10T21:01:01.735Z,93.83
2018-01-10T21:03:30.476Z,93.67
2018-01-10T21:05:58.365Z,93.78
2018-01-10T21:08:26.826Z,93.89
2018-01-10T21:10:54.607Z,93.76
2018-01-10T21:13:22.609Z,93.90
2018-01-10T21:15:50.320Z,94.96
2018-01-10T21:18:18.157Z,95.64
2018-01-10T21:20:45.926Z,95.91
2018-01-10T21:23:14.928Z,96.10
2018-01-10T21:25:42.683Z,96.09
2018-01-10T21:28:10.451Z,95.64
2018-01-10T21:30:38.325Z,95.68
2018-01-10T21:33:06.062Z,95.25
2018-01-10T21:35:33.852Z,95.08
2018-01-10T21:38:01.592Z,94.66
2018-01-10T21:40:29.354Z,94.38
2018-01-10T21:42:58.054Z,94.43
2018-01-10T21:45:26.046Z,94.19
2018-01-10T21:47:53.817Z,94.18
2018-01-10T21:50:21.515Z,94.30
2018-01-10T21:52:49.267Z,94.37
2018-01-10T21:55:16.984Z,94.44
2018-01-10T21:57:44.759Z,94.48
2018-01-10T22:00:12.620Z,94.63
2018-01-10T22:02:40.356Z,94.95
2018-01-10T22:05:08.127Z,95.03
2018-01-10T22:07:35.829Z,94.96
2018-01-10T22:10:03.524Z,94.81
2018-01-10T22:12:31.303Z,94.87
2018-01-10T22:14:59.098Z,95.61
2018-01-10T22:17:26.915Z,95.92
2018-01-10T22:19:55.800Z,96.00
2018-01-10T22:22:23.487Z,95.52
2018-01-10T22:24:51.237Z,94.87
2018-01-10T22:27:18.986Z,94.68
2018-01-10T22:29:46.739Z,94.85
2018-01-10T22:32:14.455Z,95.12
2018-01-10T22:34:42.236Z,95.14
2018-01-10T22:37:09.922Z,95.06
2018-01-10T22:39:37.766Z,95.04
2018-01-10T22:42:05.465Z,95.30
2018-01-10T22:44:33.537Z,96.01
2018-01-10T22:47:01.304Z,96.60
2018-01-10T22:49:29.231Z,96.75
2018-01-10T22:51:56.955Z,96.46
2018-01-10T22:54:24.722Z,96.10
2018-01-10T22:56:52.743Z,95.91
2018-01-10T22:59:21.154Z,96.17
2018-01-10T23:01:49.008Z,96.70
2018-01-10T23:04:16.792Z,97.17
2018-01-10T23:06:44.502Z,97.08
2018-01-10T23:09:12.189Z,96.63
2018-01-10T23:11:39.936Z,96.24
2018-01-10T23:14:07.677Z,96.21
2018-01-10T23:16:35.436Z,96.29
2018-01-10T23:19:03.196Z,96.18
2018-01-10T23:21:30.899Z,96.07
2018-01-10T23:23:58.562Z,95.97
2018-01-10T23:26:26.322Z,95.86
2018-01-10T23:28:54.008Z,95.86
2018-01-10T23:31:21.727Z,95.89
2018-01-10T23:33:49.486Z,95.76
2018-01-10T23:36:17.405Z,95.69
2018-01-10T23:38:45.103Z,95.50
2018-01-10T23:41:12.783Z,95.27
2018-01-10T23:43:40.517Z,94.96
2018-01-10T23:46:08.190Z,94.44
2018-01-10T23:48:35.940Z,94.30
2018-01-10T23:51:03.628Z,94.57
2018-01-10T23:53:31.359Z,94.77
2018-01-10T23:55:59.104Z,95.00
2018-01-10T23:58:26.854Z,95.20
